createdAt,value
2023-04-30T00:00:08.099Z,1014.61
2023-04-30T00:01:08.082Z,1014.59
2023-04-30T00:02:08.152Z,1014.59
2023-04-30T00:03:08.160Z,1014.59
2023-04-30T00:04:08.122Z,1014.61
2023-04-30T00:05:08.046Z,1014.66
2023-04-30T00:06:08.093Z,1014.62
2023-04-30T00:07:08.024Z,1014.59
2023-04-30T00:08:08.014Z,1014.64
2023-04-30T00:09:08.012Z,1014.67
2023-04-30T00:10:08.028Z,1014.65
2023-04-30T00:11:08.002Z,1014.68
2023-04-30T00:12:07.994Z,1014.71
2023-04-30T00:13:08.014Z,1014.73
2023-04-30T00:14:07.975Z,1014.70
2023-04-30T00:15:07.951Z,1014.73
2023-04-30T00:16:07.992Z,1014.71
2023-04-30T00:17:07.922Z,1014.71
2023-04-30T00:18:07.939Z,1014.72
2023-04-30T00:19:07.885Z,1014.69
2023-04-30T00:20:07.902Z,1014.73
2023-04-30T00:21:07.863Z,1014.75
2023-04-30T00:22:07.889Z,1014.75
2023-04-30T00:23:07.876Z,1014.77
2023-04-30T00:24:07.855Z,1014.79
2023-04-30T00:25:07.845Z,1014.79
2023-04-30T00:26:07.843Z,1014.81
2023-04-30T00:27:07.827Z,1014.83
2023-04-30T00:28:07.823Z,1014.81
2023-04-30T00:29:07.770Z,1014.87
2023-04-30T00:30:07.821Z,1014.87
2023-04-30T00:31:07.772Z,1014.84
2023-04-30T00:32:07.847Z,1014.85
2023-04-30T00:33:07.813Z,1014.88
2023-04-30T00:34:07.759Z,1014.86
2023-04-30T00:35:07.723Z,1014.86
2023-04-30T00:36:07.757Z,1014.89
2023-04-30T00:37:07.703Z,1014.87
2023-04-30T00:38:07.717Z,1014.86
2023-04-30T00:39:07.683Z,1014.86
2023-04-30T00:40:07.676Z,1014.90
2023-04-30T00:41:07.684Z,1014.87
2023-04-30T00:42:07.667Z,1014.86
2023-04-30T00:43:07.645Z,1014.86
2023-04-30T00:44:07.872Z,1014.84
2023-04-30T00:45:07.637Z,1014.88
2023-04-30T00:46:07.672Z,1014.88
2023-04-30T00:47:07.587Z,1014.86
2023-04-30T00:48:07.661Z,1014.90
2023-04-30T00:49:07.565Z,1014.86
2023-04-30T00:50:07.574Z,1014.88
2023-04-30T00:51:07.562Z,1014.87
2023-04-30T00:52:17.568Z,1014.89
2023-04-30T00:53:08.245Z,1014.89
2023-04-30T00:54:17.553Z,1014.92
2023-04-30T00:55:07.504Z,1014.93
2023-04-30T00:56:17.524Z,1014.92
2023-04-30T00:57:07.485Z,1014.92
2023-04-30T00:58:07.492Z,1014.94
2023-04-30T00:59:07.471Z,1014.94
2023-04-30T01:00:07.472Z,1014.94
2023-04-30T01:01:07.513Z,1014.94
2023-04-30T01:02:07.451Z,1014.97
2023-04-30T01:03:07.538Z,1014.99
2023-04-30T01:04:07.441Z,1014.99
2023-04-30T01:05:07.397Z,1014.99
2023-04-30T01:06:07.464Z,1014.99
2023-04-30T01:07:07.363Z,1014.99
2023-04-30T01:08:07.372Z,1015.00
2023-04-30T01:09:07.378Z,1014.96
2023-04-30T01:10:07.390Z,1014.98
2023-04-30T01:11:07.320Z,1014.95
2023-04-30T01:12:07.380Z,1014.98
2023-04-30T01:13:07.329Z,1014.92
2023-04-30T01:14:07.308Z,1015.02
2023-04-30T01:15:07.460Z,1014.98
2023-04-30T01:16:07.334Z,1015.00
2023-04-30T01:17:07.290Z,1015.00
2023-04-30T01:18:07.348Z,1015.01
2023-04-30T01:19:07.302Z,1015.03
2023-04-30T01:20:07.280Z,1015.00
2023-04-30T01:21:07.236Z,1015.06
2023-04-30T01:22:07.236Z,1015.09
2023-04-30T01:23:07.211Z,1015.07
2023-04-30T01:24:07.205Z,1015.06
2023-04-30T01:25:07.174Z,1015.06
2023-04-30T01:26:07.201Z,1015.03
2023-04-30T01:27:07.160Z,1015.06
2023-04-30T01:28:07.180Z,1015.06
2023-04-30T01:29:07.141Z,1015.02
2023-04-30T01:30:07.133Z,1015.09
2023-04-30T01:31:07.138Z,1015.10
2023-04-30T01:32:07.120Z,1015.09
2023-04-30T01:33:07.133Z,1015.09
2023-04-30T01:34:07.106Z,1015.09
2023-04-30T01:35:07.082Z,1015.09
2023-04-30T01:36:07.094Z,1015.10
2023-04-30T01:37:07.044Z,1015.10
2023-04-30T01:38:07.062Z,1015.10
2023-04-30T01:39:07.026Z,1015.09
2023-04-30T01:40:07.048Z,1015.09
2023-04-30T01:41:07.025Z,1015.10
2023-04-30T01:42:07.020Z,1015.05
2023-04-30T01:43:06.973Z,1015.08
2023-04-30T01:44:07.000Z,1015.02
2023-04-30T01:45:07.001Z,1015.04
2023-04-30T01:46:07.234Z,1015.04
2023-04-30T01:47:06.958Z,1015.03
2023-04-30T01:48:07.087Z,1015.01
2023-04-30T01:49:06.953Z,1015.02
2023-04-30T01:50:06.937Z,1015.03
2023-04-30T01:51:06.923Z,1015.02
2023-04-30T01:52:06.892Z,1015.06
2023-04-30T01:53:06.898Z,1015.01
2023-04-30T01:54:06.914Z,1015.08
2023-04-30T01:55:06.870Z,1015.15
2023-04-30T01:56:06.867Z,1015.13
2023-04-30T01:57:06.851Z,1015.14
2023-04-30T01:58:06.835Z,1015.16
2023-04-30T01:59:06.844Z,1015.19
2023-04-30T02:00:06.810Z,1015.20
2023-04-30T02:01:06.898Z,1015.17
2023-04-30T02:02:06.807Z,1015.19
2023-04-30T02:03:06.876Z,1015.19
2023-04-30T02:04:06.795Z,1015.17
2023-04-30T02:05:06.772Z,1015.22
2023-04-30T02:06:06.808Z,1015.22
2023-04-30T02:07:06.746Z,1015.27
2023-04-30T02:08:06.752Z,1015.25
2023-04-30T02:09:06.745Z,1015.20
2023-04-30T02:10:06.702Z,1015.24
2023-04-30T02:11:06.725Z,1015.22
2023-04-30T02:12:06.685Z,1015.25
2023-04-30T02:13:06.692Z,1015.24
2023-04-30T02:14:06.770Z,1015.31
2023-04-30T02:15:06.678Z,1015.25
2023-04-30T02:16:06.660Z,1015.24
2023-04-30T02:17:06.661Z,1015.25
2023-04-30T02:18:06.693Z,1015.27
2023-04-30T02:19:06.622Z,1015.27
2023-04-30T02:20:06.615Z,1015.30
2023-04-30T02:21:06.593Z,1015.27
2023-04-30T02:22:06.568Z,1015.33
2023-04-30T02:23:06.586Z,1015.32
2023-04-30T02:24:06.570Z,1015.31
2023-04-30T02:25:06.549Z,1015.34
2023-04-30T02:26:06.524Z,1015.36
2023-04-30T02:27:06.554Z,1015.34
2023-04-30T02:28:06.500Z,1015.35
2023-04-30T02:29:06.499Z,1015.38
2023-04-30T02:30:06.477Z,1015.33
2023-04-30T02:31:06.492Z,1015.32
2023-04-30T02:32:06.463Z,1015.34
2023-04-30T02:33:06.516Z,1015.33
2023-04-30T02:34:06.440Z,1015.36
2023-04-30T02:35:06.445Z,1015.32
2023-04-30T02:36:06.401Z,1015.35
2023-04-30T02:37:06.413Z,1015.42
2023-04-30T02:38:06.395Z,1015.42
2023-04-30T02:39:06.393Z,1015.42
2023-04-30T02:40:06.372Z,1015.48
2023-04-30T02:41:06.394Z,1015.48
2023-04-30T02:42:06.359Z,1015.48
2023-04-30T02:43:06.390Z,1015.48
2023-04-30T02:44:06.320Z,1015.49
2023-04-30T02:45:06.332Z,1015.52
2023-04-30T02:46:06.411Z,1015.51
2023-04-30T02:47:06.328Z,1015.48
2023-04-30T02:48:06.463Z,1015.46
2023-04-30T02:49:06.291Z,1015.47
2023-04-30T02:50:06.302Z,1015.43
2023-04-30T02:51:06.282Z,1015.49
2023-04-30T02:52:06.249Z,1015.51
2023-04-30T02:53:06.265Z,1015.46
2023-04-30T02:54:06.224Z,1015.44
2023-04-30T02:55:06.234Z,1015.43
2023-04-30T02:56:06.203Z,1015.39
2023-04-30T02:57:06.214Z,1015.43
2023-04-30T02:58:06.174Z,1015.39
2023-04-30T02:59:06.190Z,1015.41
2023-04-30T03:00:06.180Z,1015.41
2023-04-30T03:01:06.174Z,1015.45
2023-04-30T03:02:06.195Z,1015.42
2023-04-30T03:03:06.280Z,1015.45
2023-04-30T03:04:06.135Z,1015.48
2023-04-30T03:05:06.126Z,1015.44
2023-04-30T03:06:06.147Z,1015.45
2023-04-30T03:07:06.113Z,1015.45
2023-04-30T03:08:06.084Z,1015.48
2023-04-30T03:09:06.099Z,1015.46
2023-04-30T03:10:06.060Z,1015.48
2023-04-30T03:11:06.103Z,1015.47
2023-04-30T03:12:06.085Z,1015.45
2023-04-30T03:13:06.036Z,1015.49
2023-04-30T03:14:06.039Z,1015.52
2023-04-30T03:15:06.028Z,1015.49
2023-04-30T03:16:06.041Z,1015.48
2023-04-30T03:17:06.022Z,1015.49
2023-04-30T03:18:06.024Z,1015.51
2023-04-30T03:19:07.848Z,1015.54
2023-04-30T03:20:05.972Z,1015.52
2023-04-30T03:21:05.968Z,1015.53
2023-04-30T03:22:05.937Z,1015.53
2023-04-30T03:23:05.938Z,1015.50
2023-04-30T03:24:05.930Z,1015.52
2023-04-30T03:25:05.936Z,1015.53
2023-04-30T03:26:05.913Z,1015.53
2023-04-30T03:27:05.929Z,1015.56
2023-04-30T03:28:05.906Z,1015.54
2023-04-30T03:29:05.901Z,1015.58
2023-04-30T03:30:05.887Z,1015.57
2023-04-30T03:31:05.989Z,1015.57
2023-04-30T03:32:05.900Z,1015.57
2023-04-30T03:33:05.952Z,1015.60
2023-04-30T03:34:05.834Z,1015.60
2023-04-30T03:35:05.855Z,1015.62
2023-04-30T03:36:05.803Z,1015.57
2023-04-30T03:37:05.796Z,1015.60
2023-04-30T03:38:05.783Z,1015.60
2023-04-30T03:39:05.806Z,1015.57
2023-04-30T03:40:05.796Z,1015.61
2023-04-30T03:41:05.772Z,1015.57
2023-04-30T03:42:05.739Z,1015.55
2023-04-30T03:43:05.740Z,1015.52
2023-04-30T03:44:05.728Z,1015.60
2023-04-30T03:45:05.740Z,1015.57
2023-04-30T03:46:05.744Z,1015.63
2023-04-30T03:47:05.700Z,1015.57
2023-04-30T03:48:05.736Z,1015.56
2023-04-30T03:49:05.700Z,1015.57
2023-04-30T03:50:11.000Z,1015.62
2023-04-30T03:51:05.682Z,1015.58
2023-04-30T03:52:05.790Z,1015.58
2023-04-30T03:53:05.655Z,1015.59
2023-04-30T03:54:05.633Z,1015.57
2023-04-30T03:55:05.645Z,1015.61
2023-04-30T03:56:05.621Z,1015.57
2023-04-30T03:57:05.673Z,1015.61
2023-04-30T03:58:05.564Z,1015.63
2023-04-30T03:59:05.570Z,1015.61
2023-04-30T04:00:05.544Z,1015.64
2023-04-30T04:01:05.572Z,1015.61
2023-04-30T04:02:05.616Z,1015.63
2023-04-30T04:03:05.638Z,1015.63
2023-04-30T04:04:05.512Z,1015.68
2023-04-30T04:05:05.540Z,1015.65
2023-04-30T04:06:05.654Z,1015.63
2023-04-30T04:07:05.477Z,1015.62
2023-04-30T04:08:05.501Z,1015.66
2023-04-30T04:09:05.509Z,1015.65
2023-04-30T04:10:05.476Z,1015.66
2023-04-30T04:11:05.477Z,1015.65
2023-04-30T04:12:05.442Z,1015.68
2023-04-30T04:13:05.446Z,1015.69
2023-04-30T04:14:05.429Z,1015.67
2023-04-30T04:15:05.414Z,1015.63
2023-04-30T04:16:05.443Z,1015.63
2023-04-30T04:17:05.398Z,1015.64
2023-04-30T04:18:05.417Z,1015.63
2023-04-30T04:19:05.359Z,1015.61
2023-04-30T04:20:05.337Z,1015.62
2023-04-30T04:21:08.969Z,1015.61
2023-04-30T04:22:05.303Z,1015.61
2023-04-30T04:23:05.319Z,1015.58
2023-04-30T04:24:05.317Z,1015.63
2023-04-30T04:25:05.329Z,1015.62
2023-04-30T04:26:05.299Z,1015.62
2023-04-30T04:27:05.269Z,1015.64
2023-04-30T04:28:05.291Z,1015.63
2023-04-30T04:29:05.276Z,1015.64
2023-04-30T04:30:05.242Z,1015.63
2023-04-30T04:31:05.229Z,1015.65
2023-04-30T04:32:05.253Z,1015.63
2023-04-30T04:33:05.333Z,1015.63
2023-04-30T04:34:05.191Z,1015.65
2023-04-30T04:35:05.185Z,1015.62
2023-04-30T04:36:05.194Z,1015.65
2023-04-30T04:37:05.185Z,1015.64
2023-04-30T04:38:05.193Z,1015.66
2023-04-30T04:39:05.155Z,1015.67
2023-04-30T04:40:05.132Z,1015.70
2023-04-30T04:41:05.108Z,1015.62
2023-04-30T04:42:05.241Z,1015.64
2023-04-30T04:43:05.101Z,1015.68
2023-04-30T04:44:05.075Z,1015.68
2023-04-30T04:45:05.066Z,1015.71
2023-04-30T04:46:05.063Z,1015.73
2023-04-30T04:47:05.076Z,1015.73
2023-04-30T04:48:05.074Z,1015.73
2023-04-30T04:49:05.053Z,1015.71
2023-04-30T04:50:05.058Z,1015.72
2023-04-30T04:51:05.020Z,1015.72
2023-04-30T04:52:07.701Z,1015.76
2023-04-30T04:53:05.004Z,1015.80
2023-04-30T04:54:04.990Z,1015.78
2023-04-30T04:55:04.974Z,1015.72
2023-04-30T04:56:04.975Z,1015.79
2023-04-30T04:57:04.991Z,1015.74
2023-04-30T04:58:04.950Z,1015.73
2023-04-30T04:59:04.935Z,1015.76
2023-04-30T05:00:04.948Z,1015.76
2023-04-30T05:01:04.916Z,1015.78
2023-04-30T05:02:05.078Z,1015.80
2023-04-30T05:03:05.054Z,1015.80
2023-04-30T05:04:05.016Z,1015.75
2023-04-30T05:05:04.878Z,1015.76
2023-04-30T05:06:04.996Z,1015.75
2023-04-30T05:07:04.891Z,1015.72
2023-04-30T05:08:04.856Z,1015.74
2023-04-30T05:09:04.908Z,1015.76
2023-04-30T05:10:04.980Z,1015.77
2023-04-30T05:11:04.898Z,1015.78
2023-04-30T05:12:04.969Z,1015.80
2023-04-30T05:13:04.923Z,1015.78
2023-04-30T05:14:04.869Z,1015.78
2023-04-30T05:15:04.846Z,1015.76
2023-04-30T05:16:05.044Z,1015.74
2023-04-30T05:17:04.860Z,1015.77
2023-04-30T05:18:04.912Z,1015.76
2023-04-30T05:19:04.811Z,1015.79
2023-04-30T05:20:04.875Z,1015.84
2023-04-30T05:21:04.854Z,1015.83
2023-04-30T05:22:04.832Z,1015.82
2023-04-30T05:23:08.254Z,1015.90
2023-04-30T05:24:04.755Z,1015.93
2023-04-30T05:25:04.850Z,1015.88
2023-04-30T05:26:04.826Z,1015.87
2023-04-30T05:27:04.650Z,1015.85
2023-04-30T05:28:04.632Z,1015.87
2023-04-30T05:29:04.634Z,1015.86
2023-04-30T05:30:04.603Z,1015.84
2023-04-30T05:31:04.618Z,1015.90
2023-04-30T05:32:04.678Z,1015.89
2023-04-30T05:33:04.782Z,1015.91
2023-04-30T05:34:04.585Z,1015.87
2023-04-30T05:35:04.602Z,1015.88
2023-04-30T05:36:04.567Z,1015.91
2023-04-30T05:37:04.580Z,1015.93
2023-04-30T05:38:04.530Z,1015.90
2023-04-30T05:39:04.810Z,1015.90
2023-04-30T05:40:04.669Z,1015.94
2023-04-30T05:41:04.494Z,1015.93
2023-04-30T05:42:04.478Z,1015.95
2023-04-30T05:43:04.495Z,1015.95
2023-04-30T05:44:04.550Z,1015.93
2023-04-30T05:45:04.470Z,1015.96
2023-04-30T05:46:04.623Z,1016.00
2023-04-30T05:47:04.495Z,1015.97
2023-04-30T05:48:04.681Z,1016.00
2023-04-30T05:49:04.512Z,1016.01
2023-04-30T05:50:04.432Z,1016.01
2023-04-30T05:51:04.385Z,1015.94
2023-04-30T05:52:04.377Z,1015.91
2023-04-30T05:53:04.376Z,1015.92
2023-04-30T05:54:06.414Z,1015.91
2023-04-30T05:55:04.359Z,1015.94
2023-04-30T05:56:04.419Z,1015.94
2023-04-30T05:57:04.423Z,1015.94
2023-04-30T05:58:04.447Z,1015.91
2023-04-30T05:59:04.413Z,1015.91
2023-04-30T06:00:04.416Z,1015.85
2023-04-30T06:01:04.316Z,1015.84
2023-04-30T06:02:04.281Z,1015.87
2023-04-30T06:03:04.266Z,1015.87
2023-04-30T06:04:04.266Z,1015.84
2023-04-30T06:05:04.311Z,1015.87
2023-04-30T06:06:04.290Z,1015.90
2023-04-30T06:07:04.273Z,1015.85
2023-04-30T06:08:04.210Z,1015.85
2023-04-30T06:09:04.244Z,1015.87
2023-04-30T06:10:04.368Z,1015.86
2023-04-30T06:11:04.226Z,1015.85
2023-04-30T06:12:04.278Z,1015.83
2023-04-30T06:13:04.506Z,1015.83
2023-04-30T06:14:04.321Z,1015.88
2023-04-30T06:15:04.861Z,1015.84
2023-04-30T06:16:04.528Z,1015.85
2023-04-30T06:17:04.191Z,1015.82
2023-04-30T06:18:04.630Z,1015.79
2023-04-30T06:19:04.211Z,1015.77
2023-04-30T06:20:04.365Z,1015.78
2023-04-30T06:21:04.229Z,1015.81
2023-04-30T06:22:04.532Z,1015.80
2023-04-30T06:23:04.325Z,1015.86
2023-04-30T06:24:04.933Z,1015.84
2023-04-30T06:25:04.780Z,1015.85
2023-04-30T06:26:04.084Z,1015.85
2023-04-30T06:27:04.137Z,1015.89
2023-04-30T06:28:04.091Z,1015.91
2023-04-30T06:29:04.093Z,1015.86
2023-04-30T06:30:04.354Z,1015.85
2023-04-30T06:31:04.147Z,1015.92
2023-04-30T06:32:05.853Z,1015.88
2023-04-30T06:33:04.444Z,1015.90
2023-04-30T06:34:04.041Z,1015.90
2023-04-30T06:35:04.100Z,1015.97
2023-04-30T06:36:03.960Z,1015.97
2023-04-30T06:37:04.086Z,1016.00
2023-04-30T06:38:04.053Z,1016.01
2023-04-30T06:39:04.179Z,1016.00
2023-04-30T06:40:04.525Z,1016.04
2023-04-30T06:41:04.658Z,1016.03
2023-04-30T06:42:04.315Z,1015.99
2023-04-30T06:43:04.580Z,1016.01
2023-04-30T06:44:04.428Z,1016.05
2023-04-30T06:45:04.764Z,1016.06
2023-04-30T06:46:04.573Z,1016.05
2023-04-30T06:47:04.082Z,1016.06
2023-04-30T06:48:03.926Z,1016.06
2023-04-30T06:49:04.113Z,1016.08
2023-04-30T06:50:04.008Z,1016.05
2023-04-30T06:51:03.895Z,1016.12
2023-04-30T06:52:03.914Z,1016.11
2023-04-30T06:53:03.974Z,1016.08
2023-04-30T06:54:03.944Z,1016.11
2023-04-30T06:55:04.491Z,1016.10
2023-04-30T06:56:05.957Z,1016.11
2023-04-30T06:57:03.828Z,1016.09
2023-04-30T06:58:04.146Z,1016.10
2023-04-30T06:59:03.974Z,1016.10
2023-04-30T07:00:03.856Z,1016.12
2023-04-30T07:01:03.893Z,1016.12
2023-04-30T07:02:03.791Z,1016.15
2023-04-30T07:03:03.922Z,1016.20
2023-04-30T07:04:04.052Z,1016.11
2023-04-30T07:05:03.841Z,1016.12
2023-04-30T07:06:04.006Z,1016.14
2023-04-30T07:07:03.842Z,1016.16
2023-04-30T07:08:04.028Z,1016.19
2023-04-30T07:09:03.931Z,1016.16
2023-04-30T07:10:04.033Z,1016.15
2023-04-30T07:11:04.241Z,1016.14
2023-04-30T07:12:03.809Z,1016.15
2023-04-30T07:13:04.303Z,1016.16
2023-04-30T07:14:03.980Z,1016.15
2023-04-30T07:15:03.757Z,1016.15
2023-04-30T07:16:04.018Z,1016.11
2023-04-30T07:17:04.202Z,1016.16
2023-04-30T07:18:03.899Z,1016.17
2023-04-30T07:19:03.910Z,1016.18
2023-04-30T07:20:04.022Z,1016.18
2023-04-30T07:21:05.174Z,1016.16
2023-04-30T07:22:03.914Z,1016.14
2023-04-30T07:23:03.991Z,1016.16
2023-04-30T07:24:04.034Z,1016.18
2023-04-30T07:25:03.747Z,1016.15
2023-04-30T07:26:03.862Z,1016.18
2023-04-30T07:27:03.490Z,1016.16
2023-04-30T07:28:03.460Z,1016.18
2023-04-30T07:29:03.362Z,1016.15
2023-04-30T07:30:03.376Z,1016.17
2023-04-30T07:31:03.338Z,1016.11
2023-04-30T07:32:03.403Z,1016.09
2023-04-30T07:33:03.329Z,1016.10
2023-04-30T07:34:03.292Z,1016.12
2023-04-30T07:35:03.273Z,1016.08
2023-04-30T07:36:03.312Z,1016.13
2023-04-30T07:37:03.301Z,1016.10
2023-04-30T07:38:03.268Z,1016.08
2023-04-30T07:39:03.253Z,1016.09
2023-04-30T07:40:03.264Z,1016.11
2023-04-30T07:41:03.283Z,1016.04
2023-04-30T07:42:03.249Z,1016.07
2023-04-30T07:43:03.270Z,1016.09
2023-04-30T07:44:03.209Z,1016.06
2023-04-30T07:45:03.201Z,1016.10
2023-04-30T07:46:03.224Z,1016.06
2023-04-30T07:47:03.138Z,1016.11
2023-04-30T07:48:03.256Z,1016.12
2023-04-30T07:49:03.146Z,1016.06
2023-04-30T07:50:03.174Z,1016.03
2023-04-30T07:51:03.110Z,1016.01
2023-04-30T07:52:03.139Z,1016.04
2023-04-30T07:53:10.090Z,1016.01
2023-04-30T07:54:03.074Z,1016.08
2023-04-30T07:55:05.836Z,1016.13
2023-04-30T07:56:03.798Z,1016.08
2023-04-30T07:57:03.049Z,1016.05
2023-04-30T07:58:03.102Z,1016.06
2023-04-30T07:59:02.995Z,1016.03
2023-04-30T08:00:03.015Z,1016.05
2023-04-30T08:01:03.046Z,1016.03
2023-04-30T08:02:03.045Z,1016.06
2023-04-30T08:03:03.046Z,1016.12
2023-04-30T08:04:03.115Z,1016.11
2023-04-30T08:05:02.957Z,1016.11
2023-04-30T08:06:02.987Z,1016.10
2023-04-30T08:07:02.940Z,1016.10
2023-04-30T08:08:02.956Z,1016.11
2023-04-30T08:09:02.895Z,1016.11
2023-04-30T08:10:02.887Z,1016.12
2023-04-30T08:11:02.917Z,1016.10
2023-04-30T08:12:03.858Z,1016.11
2023-04-30T08:13:02.876Z,1016.11
2023-04-30T08:14:02.866Z,1016.07
2023-04-30T08:15:02.876Z,1016.12
2023-04-30T08:16:02.924Z,1016.09
2023-04-30T08:17:02.905Z,1016.08
2023-04-30T08:18:02.932Z,1016.05
2023-04-30T08:19:02.833Z,1016.06
2023-04-30T08:20:02.805Z,1016.09
2023-04-30T08:21:02.839Z,1016.11
2023-04-30T08:22:02.766Z,1016.11
2023-04-30T08:23:02.762Z,1016.13
2023-04-30T08:24:02.766Z,1016.12
2023-04-30T08:25:02.832Z,1016.12
2023-04-30T08:26:02.725Z,1016.13
2023-04-30T08:27:02.702Z,1016.11
2023-04-30T08:28:02.720Z,1016.14
2023-04-30T08:29:02.789Z,1016.11
2023-04-30T08:30:02.735Z,1016.14
2023-04-30T08:31:02.685Z,1016.11
2023-04-30T08:32:02.708Z,1016.15
2023-04-30T08:33:02.704Z,1016.11
2023-04-30T08:34:02.656Z,1016.15
2023-04-30T08:35:02.647Z,1016.06
2023-04-30T08:36:02.640Z,1016.04
2023-04-30T08:37:02.626Z,1016.03
2023-04-30T08:38:02.642Z,1016.05
2023-04-30T08:39:02.569Z,1015.99
2023-04-30T08:40:02.588Z,1015.99
2023-04-30T08:41:02.582Z,1016.00
2023-04-30T08:42:02.556Z,1015.97
2023-04-30T08:43:02.560Z,1015.99
2023-04-30T08:44:02.534Z,1016.02
2023-04-30T08:45:02.515Z,1016.04
2023-04-30T08:46:02.572Z,1016.02
2023-04-30T08:47:02.514Z,1016.00
2023-04-30T08:48:02.549Z,1016.03
2023-04-30T08:49:02.470Z,1016.07
2023-04-30T08:50:02.456Z,1016.10
2023-04-30T08:51:02.459Z,1016.04
2023-04-30T08:52:02.483Z,1015.99
2023-04-30T08:53:02.432Z,1015.99
2023-04-30T08:54:02.495Z,1016.03
2023-04-30T08:55:02.447Z,1016.00
2023-04-30T08:56:02.471Z,1015.95
2023-04-30T08:57:02.458Z,1015.96
2023-04-30T08:58:02.432Z,1016.02
2023-04-30T08:59:02.371Z,1015.91
2023-04-30T09:00:02.566Z,1015.90
2023-04-30T09:01:02.395Z,1015.85
2023-04-30T09:02:02.528Z,1015.87
2023-04-30T09:03:02.361Z,1015.83
2023-04-30T09:04:02.431Z,1015.85
2023-04-30T09:05:02.298Z,1015.83
2023-04-30T09:06:02.335Z,1015.86
2023-04-30T09:07:04.422Z,1015.84
2023-04-30T09:08:04.149Z,1015.87
2023-04-30T09:09:02.264Z,1015.85
2023-04-30T09:10:02.265Z,1015.86
2023-04-30T09:11:02.258Z,1015.88
2023-04-30T09:12:02.263Z,1015.88
2023-04-30T09:13:03.208Z,1015.86
2023-04-30T09:14:02.216Z,1015.87
2023-04-30T09:15:02.311Z,1015.85
2023-04-30T09:16:02.237Z,1015.83
2023-04-30T09:17:02.246Z,1015.82
2023-04-30T09:18:02.285Z,1015.84
2023-04-30T09:19:02.164Z,1015.77
2023-04-30T09:20:02.145Z,1015.82
2023-04-30T09:21:02.168Z,1015.79
2023-04-30T09:22:02.192Z,1015.81
2023-04-30T09:23:02.116Z,1015.81
2023-04-30T09:24:02.227Z,1015.79
2023-04-30T09:25:02.099Z,1015.81
2023-04-30T09:26:02.229Z,1015.82
2023-04-30T09:27:02.134Z,1015.82
2023-04-30T09:28:02.066Z,1015.76
2023-04-30T09:29:02.036Z,1015.81
2023-04-30T09:30:02.070Z,1015.84
2023-04-30T09:31:02.105Z,1015.81
2023-04-30T09:32:02.078Z,1015.82
2023-04-30T09:33:02.096Z,1015.77
2023-04-30T09:34:02.026Z,1015.79
2023-04-30T09:35:02.050Z,1015.77
2023-04-30T09:36:01.994Z,1015.74
2023-04-30T09:37:01.981Z,1015.78
2023-04-30T09:38:02.002Z,1015.75
2023-04-30T09:39:01.936Z,1015.78
2023-04-30T09:40:01.923Z,1015.74
2023-04-30T09:41:01.998Z,1015.78
2023-04-30T09:42:01.930Z,1015.76
2023-04-30T09:43:01.974Z,1015.78
2023-04-30T09:44:01.902Z,1015.77
2023-04-30T09:45:01.890Z,1015.72
2023-04-30T09:46:01.872Z,1015.74
2023-04-30T09:47:01.960Z,1015.71
2023-04-30T09:48:13.100Z,1015.72
2023-04-30T09:49:02.829Z,1015.72
2023-04-30T09:50:01.942Z,1015.69
2023-04-30T09:51:01.797Z,1015.74
2023-04-30T09:52:01.845Z,1015.71
2023-04-30T09:53:01.805Z,1015.73
2023-04-30T09:54:01.885Z,1015.74
2023-04-30T09:55:01.870Z,1015.73
2023-04-30T09:56:01.760Z,1015.75
2023-04-30T09:57:02.058Z,1015.75
2023-04-30T09:58:01.834Z,1015.80
2023-04-30T09:59:01.744Z,1015.77
2023-04-30T10:00:01.815Z,1015.74
2023-04-30T10:01:01.883Z,1015.74
2023-04-30T10:02:02.036Z,1015.76
2023-04-30T10:03:01.840Z,1015.76
2023-04-30T10:04:01.887Z,1015.65
2023-04-30T10:05:01.702Z,1015.68
2023-04-30T10:06:01.962Z,1015.65
2023-04-30T10:07:01.764Z,1015.56
2023-04-30T10:08:01.657Z,1015.60
2023-04-30T10:09:01.754Z,1015.54
2023-04-30T10:10:01.798Z,1015.56
2023-04-30T10:11:01.634Z,1015.55
2023-04-30T10:12:01.674Z,1015.51
2023-04-30T10:13:01.587Z,1015.53
2023-04-30T10:14:01.576Z,1015.51
2023-04-30T10:15:01.554Z,1015.49
2023-04-30T10:16:01.665Z,1015.46
2023-04-30T10:17:01.733Z,1015.44
2023-04-30T10:18:01.672Z,1015.47
2023-04-30T10:19:01.561Z,1015.43
2023-04-30T10:20:01.554Z,1015.46
2023-04-30T10:21:01.569Z,1015.43
2023-04-30T10:22:01.485Z,1015.39
2023-04-30T10:23:01.518Z,1015.43
2023-04-30T10:24:01.446Z,1015.35
2023-04-30T10:25:01.451Z,1015.35
2023-04-30T10:26:01.539Z,1015.39
2023-04-30T10:27:01.474Z,1015.39
2023-04-30T10:28:03.944Z,1015.39
2023-04-30T10:29:01.428Z,1015.39
2023-04-30T10:30:01.452Z,1015.37
2023-04-30T10:31:01.396Z,1015.36
2023-04-30T10:32:01.497Z,1015.37
2023-04-30T10:33:01.470Z,1015.34
2023-04-30T10:34:01.383Z,1015.35
2023-04-30T10:35:01.390Z,1015.32
2023-04-30T10:36:01.325Z,1015.32
2023-04-30T10:37:01.330Z,1015.28
2023-04-30T10:38:01.294Z,1015.29
2023-04-30T10:39:01.317Z,1015.27
2023-04-30T10:40:01.275Z,1015.26
2023-04-30T10:41:01.302Z,1015.25
2023-04-30T10:42:01.255Z,1015.29
2023-04-30T10:43:01.308Z,1015.28
2023-04-30T10:44:02.014Z,1015.32
2023-04-30T10:45:01.328Z,1015.26
2023-04-30T10:46:01.314Z,1015.29
2023-04-30T10:47:01.269Z,1015.24
2023-04-30T10:48:01.285Z,1015.27
2023-04-30T10:49:01.326Z,1015.22
2023-04-30T10:50:01.188Z,1015.18
2023-04-30T10:51:01.205Z,1015.15
2023-04-30T10:52:01.170Z,1015.11
2023-04-30T10:53:01.210Z,1015.11
2023-04-30T10:54:01.165Z,1015.12
2023-04-30T10:55:01.150Z,1015.10
2023-04-30T10:56:01.122Z,1015.11
2023-04-30T10:57:01.114Z,1015.06
2023-04-30T10:58:01.113Z,1015.11
2023-04-30T10:59:01.110Z,1015.06
2023-04-30T11:00:01.145Z,1015.09
2023-04-30T11:01:01.155Z,1015.08
2023-04-30T11:02:01.640Z,1015.08
2023-04-30T11:03:01.098Z,1015.05
2023-04-30T11:04:01.770Z,1015.08
2023-04-30T11:05:01.091Z,1015.08
2023-04-30T11:06:01.108Z,1015.02
2023-04-30T11:07:01.057Z,1015.00
2023-04-30T11:08:01.005Z,1014.98
2023-04-30T11:09:01.002Z,1015.01
2023-04-30T11:10:01.000Z,1014.97
2023-04-30T11:11:00.970Z,1015.02
2023-04-30T11:12:00.951Z,1015.00
2023-04-30T11:13:01.689Z,1014.97
2023-04-30T11:14:01.108Z,1014.98
2023-04-30T11:15:00.917Z,1015.00
2023-04-30T11:16:00.985Z,1014.99
2023-04-30T11:17:00.922Z,1015.01
2023-04-30T11:18:01.027Z,1014.94
2023-04-30T11:19:00.912Z,1014.95
2023-04-30T11:20:00.861Z,1014.92
2023-04-30T11:21:00.887Z,1014.87
2023-04-30T11:22:00.852Z,1014.93
2023-04-30T11:23:00.869Z,1014.94
2023-04-30T11:24:00.836Z,1014.91
2023-04-30T11:25:00.884Z,1014.91
2023-04-30T11:26:00.899Z,1014.89
2023-04-30T11:27:00.820Z,1014.86
2023-04-30T11:28:00.791Z,1014.87
2023-04-30T11:29:00.829Z,1014.90
2023-04-30T11:30:00.767Z,1014.84
2023-04-30T11:31:00.888Z,1014.86
2023-04-30T11:32:00.823Z,1014.88
2023-04-30T11:33:00.764Z,1014.88
2023-04-30T11:34:00.714Z,1014.85
2023-04-30T11:35:00.792Z,1014.84
2023-04-30T11:36:00.782Z,1014.84
2023-04-30T11:37:00.719Z,1014.82
2023-04-30T11:38:00.680Z,1014.73
2023-04-30T11:39:00.714Z,1014.71
2023-04-30T11:40:00.696Z,1014.68
2023-04-30T11:41:00.659Z,1014.72
2023-04-30T11:42:00.707Z,1014.69
2023-04-30T11:43:00.634Z,1014.69
2023-04-30T11:44:00.631Z,1014.65
2023-04-30T11:45:00.614Z,1014.67
2023-04-30T11:46:00.602Z,1014.67
2023-04-30T11:47:00.715Z,1014.69
2023-04-30T11:48:00.680Z,1014.68
2023-04-30T11:49:00.561Z,1014.69
2023-04-30T11:50:00.574Z,1014.68
2023-04-30T11:51:00.549Z,1014.62
2023-04-30T11:52:00.560Z,1014.67
2023-04-30T11:53:00.564Z,1014.71
2023-04-30T11:54:00.518Z,1014.66
2023-04-30T11:55:00.502Z,1014.67
2023-04-30T11:56:00.492Z,1014.63
2023-04-30T11:57:00.490Z,1014.60
2023-04-30T11:58:00.463Z,1014.57
2023-04-30T11:59:00.469Z,1014.56
2023-04-30T12:00:00.454Z,1014.56
2023-04-30T12:01:00.451Z,1014.54
2023-04-30T12:02:00.467Z,1014.52
2023-04-30T12:03:00.785Z,1014.48
2023-04-30T12:04:00.615Z,1014.52
2023-04-30T12:05:00.411Z,1014.52